createdAt,value
2024-05-09T00:00:30.387Z,10.88
2024-05-09T00:01:22.952Z,10.83
2024-05-09T00:02:23.088Z,10.78
2024-05-09T00:03:22.921Z,10.76
2024-05-09T00:04:22.919Z,10.76
2024-05-09T00:05:22.965Z,10.69
2024-05-09T00:06:22.856Z,10.69
2024-05-09T00:07:22.922Z,10.69
2024-05-09T00:08:22.884Z,10.69
2024-05-09T00:09:22.827Z,10.69
2024-05-09T00:10:29.256Z,10.69
2024-05-09T00:11:23.036Z,10.69
2024-05-09T00:12:23.093Z,10.66
2024-05-09T00:13:22.797Z,10.63
2024-05-09T00:14:22.872Z,10.62
2024-05-09T00:15:22.755Z,10.58
2024-05-09T00:16:22.752Z,10.55
2024-05-09T00:17:22.936Z,10.54
2024-05-09T00:18:22.917Z,10.54
2024-05-09T00:19:22.941Z,10.54
2024-05-09T00:20:28.540Z,10.54
2024-05-09T00:21:22.683Z,10.54
2024-05-09T00:22:22.706Z,10.57
2024-05-09T00:23:22.741Z,10.52
2024-05-09T00:24:22.674Z,10.51
2024-05-09T00:25:22.648Z,10.52
2024-05-09T00:26:22.752Z,10.52
2024-05-09T00:27:22.627Z,10.52
2024-05-09T00:28:22.623Z,10.51
2024-05-09T00:29:22.665Z,10.54
2024-05-09T00:30:31.595Z,10.51
2024-05-09T00:31:22.589Z,10.44
2024-05-09T00:32:22.671Z,10.39
2024-05-09T00:33:22.770Z,10.36
2024-05-09T00:34:22.647Z,10.36
2024-05-09T00:35:22.660Z,10.38
2024-05-09T00:36:22.522Z,10.38
2024-05-09T00:37:22.538Z,10.42
2024-05-09T00:38:22.565Z,10.39
2024-05-09T00:39:22.563Z,10.38
2024-05-09T00:40:30.927Z,10.35
2024-05-09T00:41:22.520Z,10.35
2024-05-09T00:42:22.464Z,10.31
2024-05-09T00:43:22.465Z,10.29
2024-05-09T00:44:22.490Z,10.28
2024-05-09T00:45:22.470Z,10.29
2024-05-09T00:46:22.467Z,10.29
2024-05-09T00:47:22.660Z,10.28
2024-05-09T00:48:22.555Z,10.26
2024-05-09T00:49:22.564Z,10.28
2024-05-09T00:50:29.841Z,10.31
2024-05-09T00:51:22.386Z,10.29
2024-05-09T00:52:22.393Z,10.29
2024-05-09T00:53:22.395Z,10.25
2024-05-09T00:54:22.318Z,10.26
2024-05-09T00:55:22.316Z,10.24
2024-05-09T00:56:22.442Z,10.20
2024-05-09T00:57:22.321Z,10.17
2024-05-09T00:58:22.323Z,10.17
2024-05-09T00:59:22.326Z,10.16
2024-05-09T01:00:30.724Z,10.16
2024-05-09T01:01:22.283Z,10.16
2024-05-09T01:02:22.308Z,10.16
2024-05-09T01:03:22.774Z,10.16
2024-05-09T01:04:22.270Z,10.16
2024-05-09T01:05:22.251Z,10.11
2024-05-09T01:06:22.211Z,10.11
2024-05-09T01:07:22.188Z,10.14
2024-05-09T01:08:22.231Z,10.16
2024-05-09T01:09:22.178Z,10.16
2024-05-09T01:10:28.147Z,10.16
2024-05-09T01:11:22.232Z,10.13
2024-05-09T01:12:22.209Z,10.10
2024-05-09T01:13:22.137Z,10.09
2024-05-09T01:14:22.187Z,10.06
2024-05-09T01:15:22.144Z,10.02
2024-05-09T01:16:22.113Z,9.99
2024-05-09T01:17:22.281Z,10.01
2024-05-09T01:18:22.223Z,10.02
2024-05-09T01:19:22.225Z,9.98
2024-05-09T01:20:31.815Z,10.02
2024-05-09T01:21:22.084Z,10.02
2024-05-09T01:22:22.190Z,10.04
2024-05-09T01:23:22.109Z,10.04
2024-05-09T01:24:22.044Z,10.04
2024-05-09T01:25:22.015Z,10.04
2024-05-09T01:26:22.063Z,10.04
2024-05-09T01:27:21.980Z,10.01
2024-05-09T01:28:21.974Z,10.02
2024-05-09T01:29:22.011Z,10.02
2024-05-09T01:30:31.198Z,10.02
2024-05-09T01:31:21.953Z,10.02
2024-05-09T01:32:22.308Z,10.01
2024-05-09T01:33:22.138Z,10.01
2024-05-09T01:34:22.093Z,9.98
2024-05-09T01:35:22.012Z,9.96
2024-05-09T01:36:21.875Z,9.92
2024-05-09T01:37:21.866Z,9.91
2024-05-09T01:38:21.936Z,9.91
2024-05-09T01:39:21.846Z,9.91
2024-05-09T01:40:28.680Z,9.86
2024-05-09T01:41:21.877Z,9.80
2024-05-09T01:42:21.849Z,9.78
2024-05-09T01:43:21.804Z,9.78
2024-05-09T01:44:21.845Z,9.78
2024-05-09T01:45:21.824Z,9.77
2024-05-09T01:46:21.784Z,9.75
2024-05-09T01:47:21.891Z,9.75
2024-05-09T01:48:21.978Z,9.75
2024-05-09T01:49:21.884Z,9.68
2024-05-09T01:50:33.222Z,9.65
2024-05-09T01:51:21.758Z,9.67
2024-05-09T01:52:21.719Z,9.65
2024-05-09T01:53:21.852Z,9.65
2024-05-09T01:54:21.693Z,9.67
2024-05-09T01:55:21.672Z,9.65
2024-05-09T01:56:21.761Z,9.65
2024-05-09T01:57:21.651Z,9.65
2024-05-09T01:58:21.667Z,9.60
2024-05-09T01:59:21.716Z,9.60
2024-05-09T02:00:30.283Z,9.52
2024-05-09T02:01:21.643Z,9.44
2024-05-09T02:02:21.810Z,9.37
2024-05-09T02:03:21.757Z,9.31
2024-05-09T02:04:21.822Z,9.24
2024-05-09T02:05:21.692Z,9.22
2024-05-09T02:06:21.554Z,9.20
2024-05-09T02:07:21.558Z,9.17
2024-05-09T02:08:22.141Z,9.20
2024-05-09T02:09:21.540Z,9.20
2024-05-09T02:10:26.488Z,9.26
2024-05-09T02:11:21.567Z,9.30
2024-05-09T02:12:21.617Z,9.30
2024-05-09T02:13:21.509Z,9.31
2024-05-09T02:14:21.523Z,9.34
2024-05-09T02:15:21.457Z,9.32
2024-05-09T02:16:21.484Z,9.34
2024-05-09T02:17:21.576Z,9.35
2024-05-09T02:18:21.598Z,9.35
2024-05-09T02:19:21.614Z,9.37
2024-05-09T02:21:21.415Z,9.37
2024-05-09T02:22:21.431Z,9.35
2024-05-09T02:23:21.472Z,9.32
2024-05-09T02:24:21.374Z,9.30
2024-05-09T02:25:21.360Z,9.32
2024-05-09T02:26:21.394Z,9.32
2024-05-09T02:27:21.340Z,9.32
2024-05-09T02:28:21.350Z,9.32
2024-05-09T02:29:21.451Z,9.30
2024-05-09T02:30:29.971Z,9.27
2024-05-09T02:31:21.326Z,9.30
2024-05-09T02:32:21.419Z,9.30
2024-05-09T02:33:21.779Z,9.30
2024-05-09T02:34:21.363Z,9.30
2024-05-09T02:35:21.307Z,9.27
2024-05-09T02:36:21.251Z,9.24
2024-05-09T02:37:21.245Z,9.26
2024-05-09T02:38:21.345Z,9.26
2024-05-09T02:39:21.204Z,9.19
2024-05-09T02:40:28.929Z,9.17
2024-05-09T02:41:21.303Z,9.17
2024-05-09T02:42:21.181Z,9.17
2024-05-09T02:43:21.171Z,9.17
2024-05-09T02:44:21.272Z,9.17
2024-05-09T02:45:21.241Z,9.19
2024-05-09T02:46:21.154Z,9.20
2024-05-09T02:47:21.428Z,9.27
2024-05-09T02:48:21.447Z,9.30
2024-05-09T02:49:21.449Z,9.26
2024-05-09T02:50:29.738Z,9.30
2024-05-09T02:51:21.284Z,9.24
2024-05-09T02:52:21.178Z,9.20
2024-05-09T02:53:21.142Z,9.08
2024-05-09T02:54:21.146Z,9.01
2024-05-09T02:55:21.123Z,8.96
2024-05-09T02:56:21.216Z,8.93
2024-05-09T02:57:21.030Z,8.88
2024-05-09T02:58:21.006Z,8.85
2024-05-09T02:59:21.170Z,8.88
2024-05-09T03:00:26.451Z,8.91
2024-05-09T03:01:21.145Z,8.89
2024-05-09T03:02:21.070Z,8.86
2024-05-09T03:03:21.150Z,8.85
2024-05-09T03:04:21.058Z,8.88
2024-05-09T03:05:20.950Z,8.86
2024-05-09T03:06:20.939Z,8.91
2024-05-09T03:07:20.960Z,8.88
2024-05-09T03:08:20.885Z,8.88
2024-05-09T03:09:20.893Z,8.88
2024-05-09T03:10:25.612Z,8.88
2024-05-09T03:11:20.997Z,8.88
2024-05-09T03:12:20.935Z,8.86
2024-05-09T03:13:20.852Z,8.86
2024-05-09T03:14:20.874Z,8.85
2024-05-09T03:15:20.855Z,8.83
2024-05-09T03:16:20.843Z,8.80
2024-05-09T03:17:20.829Z,8.79
2024-05-09T03:18:20.837Z,8.79
2024-05-09T03:19:20.836Z,8.79
2024-05-09T03:20:24.267Z,8.80
2024-05-09T03:21:20.727Z,8.79
2024-05-09T03:22:20.708Z,8.76
2024-05-09T03:23:20.788Z,8.76
2024-05-09T03:24:20.692Z,8.75
2024-05-09T03:25:20.685Z,8.75
2024-05-09T03:26:20.737Z,8.73
2024-05-09T03:27:20.652Z,8.68
2024-05-09T03:28:20.660Z,8.70
2024-05-09T03:29:20.700Z,8.71
2024-05-09T03:30:29.604Z,8.70
2024-05-09T03:31:20.636Z,8.71
2024-05-09T03:32:20.677Z,8.73
2024-05-09T03:33:21.284Z,8.73
2024-05-09T03:34:20.728Z,8.70
2024-05-09T03:35:20.603Z,8.70
2024-05-09T03:36:20.576Z,8.67
2024-05-09T03:37:20.544Z,8.67
2024-05-09T03:38:20.580Z,8.65
2024-05-09T03:39:20.526Z,8.63
2024-05-09T03:40:23.886Z,8.63
2024-05-09T03:41:20.545Z,8.64
2024-05-09T03:42:20.527Z,8.65
2024-05-09T03:43:20.481Z,8.64
2024-05-09T03:44:20.545Z,8.64
2024-05-09T03:45:20.465Z,8.65
2024-05-09T03:46:20.450Z,8.65
2024-05-09T03:47:20.583Z,8.65
2024-05-09T03:48:20.639Z,8.65
2024-05-09T03:49:20.499Z,8.65
2024-05-09T03:50:26.351Z,8.58
2024-05-09T03:51:20.483Z,8.58
2024-05-09T03:52:20.392Z,8.61
2024-05-09T03:53:20.404Z,8.61
2024-05-09T03:54:20.419Z,8.63
2024-05-09T03:55:20.364Z,8.63
2024-05-09T03:56:20.414Z,8.65
2024-05-09T03:57:20.389Z,8.67
2024-05-09T03:58:20.357Z,8.68
2024-05-09T03:59:20.355Z,8.67
2024-05-09T04:00:30.415Z,8.67
2024-05-09T04:01:20.397Z,8.65
2024-05-09T04:02:20.329Z,8.68
2024-05-09T04:03:20.649Z,8.68
2024-05-09T04:04:20.338Z,8.61
2024-05-09T04:05:20.318Z,8.54
2024-05-09T04:06:20.282Z,8.47
2024-05-09T04:07:20.259Z,8.49
2024-05-09T04:08:20.288Z,8.49
2024-05-09T04:09:20.208Z,8.47
2024-05-09T04:10:27.755Z,8.50
2024-05-09T04:11:20.349Z,8.54
2024-05-09T04:12:20.280Z,8.58
2024-05-09T04:13:20.191Z,8.64
2024-05-09T04:14:20.341Z,8.64
2024-05-09T04:15:20.153Z,8.67
2024-05-09T04:16:20.160Z,8.68
2024-05-09T04:17:20.239Z,8.68
2024-05-09T04:18:20.190Z,8.70
2024-05-09T04:19:20.363Z,8.73
2024-05-09T04:20:29.310Z,8.71
2024-05-09T04:21:20.112Z,8.68
2024-05-09T04:22:20.077Z,8.70
2024-05-09T04:23:20.184Z,8.71
2024-05-09T04:24:20.067Z,8.75
2024-05-09T04:25:20.058Z,8.78
2024-05-09T04:26:20.082Z,8.79
2024-05-09T04:27:20.028Z,8.79
2024-05-09T04:28:20.036Z,8.79
2024-05-09T04:29:20.136Z,8.79
2024-05-09T04:30:26.477Z,8.78
2024-05-09T04:31:19.996Z,8.76
2024-05-09T04:32:20.085Z,8.79
2024-05-09T04:33:20.406Z,8.80
2024-05-09T04:34:20.023Z,8.82
2024-05-09T04:35:20.054Z,8.89
2024-05-09T04:36:19.960Z,8.93
2024-05-09T04:37:19.916Z,8.94
2024-05-09T04:38:20.030Z,8.97
2024-05-09T04:39:19.911Z,9.01
2024-05-09T04:40:28.118Z,9.04
2024-05-09T04:41:19.946Z,9.12
2024-05-09T04:42:19.874Z,9.13
2024-05-09T04:43:19.850Z,9.12
2024-05-09T04:44:19.880Z,9.15
2024-05-09T04:45:19.860Z,9.16
2024-05-09T04:46:19.829Z,9.19
2024-05-09T04:47:20.042Z,9.22
2024-05-09T04:48:20.011Z,9.22
2024-05-09T04:49:20.020Z,9.24
2024-05-09T04:50:29.326Z,9.24
2024-05-09T04:51:19.806Z,9.24
2024-05-09T04:52:19.757Z,9.24
2024-05-09T04:53:19.793Z,9.27
2024-05-09T04:54:30.074Z,9.26
2024-05-09T04:55:19.745Z,9.31
2024-05-09T04:56:19.806Z,9.30
2024-05-09T04:57:19.736Z,9.32
2024-05-09T04:58:19.720Z,9.34
2024-05-09T04:59:19.725Z,9.37
2024-05-09T05:00:28.463Z,9.41
2024-05-09T05:01:19.706Z,9.42
2024-05-09T05:02:19.843Z,9.44
2024-05-09T05:03:20.018Z,9.49
2024-05-09T05:04:19.741Z,9.49
2024-05-09T05:05:19.770Z,9.50
2024-05-09T05:06:19.617Z,9.53
2024-05-09T05:07:19.601Z,9.53
2024-05-09T05:08:19.938Z,9.55
2024-05-09T05:09:19.607Z,9.55
2024-05-09T05:10:25.455Z,9.55
2024-05-09T05:11:19.751Z,9.55
2024-05-09T05:12:19.666Z,9.56
2024-05-09T05:13:21.096Z,9.58
2024-05-09T05:14:19.758Z,9.52
2024-05-09T05:15:19.517Z,9.55
2024-05-09T05:16:19.514Z,9.60
2024-05-09T05:17:19.619Z,9.62
2024-05-09T05:18:19.884Z,9.67
2024-05-09T05:19:19.604Z,9.70
2024-05-09T05:20:27.402Z,9.71
2024-05-09T05:21:19.628Z,9.75
2024-05-09T05:22:19.448Z,9.78
2024-05-09T05:23:19.605Z,9.85
2024-05-09T05:24:19.452Z,9.88
2024-05-09T05:25:19.426Z,9.91
2024-05-09T05:26:19.483Z,9.95
2024-05-09T05:27:19.391Z,9.98
2024-05-09T05:28:19.401Z,10.02
2024-05-09T05:29:20.993Z,10.06
2024-05-09T05:30:25.062Z,10.06
2024-05-09T05:31:19.384Z,10.09
2024-05-09T05:32:19.631Z,10.09
2024-05-09T05:33:19.975Z,10.11
2024-05-09T05:34:19.340Z,10.14
2024-05-09T05:35:19.374Z,10.16
2024-05-09T05:36:19.290Z,10.18
2024-05-09T05:37:19.281Z,10.20
2024-05-09T05:38:21.945Z,10.24
2024-05-09T05:39:19.315Z,10.24
2024-05-09T05:40:28.138Z,10.25
2024-05-09T05:41:19.298Z,10.29
2024-05-09T05:42:19.253Z,10.35
2024-05-09T05:43:19.244Z,10.39
2024-05-09T05:44:19.266Z,10.44
2024-05-09T05:45:19.227Z,10.51
2024-05-09T05:46:19.200Z,10.55
2024-05-09T05:47:19.244Z,10.57
2024-05-09T05:48:19.414Z,10.58
2024-05-09T05:49:19.276Z,10.62
2024-05-09T05:50:27.355Z,10.63
2024-05-09T05:51:19.215Z,10.66
2024-05-09T05:52:19.143Z,10.69
2024-05-09T05:53:19.162Z,10.70
2024-05-09T05:54:19.138Z,10.72
2024-05-09T05:55:19.096Z,10.73
2024-05-09T05:56:19.127Z,10.75
2024-05-09T05:57:19.080Z,10.80
2024-05-09T05:58:19.064Z,10.80
2024-05-09T05:59:19.081Z,10.84
2024-05-09T06:00:29.178Z,10.87
2024-05-09T06:01:19.104Z,10.90
2024-05-09T06:02:19.364Z,10.93
2024-05-09T06:03:19.031Z,10.95
2024-05-09T06:04:19.077Z,10.99
2024-05-09T06:05:19.041Z,11.02
2024-05-09T06:06:18.976Z,10.99
2024-05-09T06:07:18.979Z,11.03
2024-05-09T06:08:19.025Z,11.06
2024-05-09T06:09:19.002Z,11.06
2024-05-09T06:10:25.374Z,11.08
2024-05-09T06:11:19.053Z,11.09
2024-05-09T06:12:19.060Z,11.13
2024-05-09T06:13:18.918Z,11.16
2024-05-09T06:14:18.938Z,11.17
2024-05-09T06:15:18.909Z,11.20
2024-05-09T06:16:18.885Z,11.21
2024-05-09T06:17:19.010Z,11.23
2024-05-09T06:18:19.214Z,11.23
2024-05-09T06:19:18.940Z,11.26
2024-05-09T06:20:24.025Z,11.27
2024-05-09T06:21:19.006Z,11.30
2024-05-09T06:22:18.823Z,11.28
2024-05-09T06:23:18.844Z,11.28
2024-05-09T06:24:18.796Z,11.28
2024-05-09T06:25:18.775Z,11.30
2024-05-09T06:26:18.839Z,11.31
2024-05-09T06:27:18.765Z,11.33
2024-05-09T06:28:18.747Z,11.36
2024-05-09T06:29:18.790Z,11.38
2024-05-09T06:30:25.599Z,11.44
2024-05-09T06:31:18.724Z,11.46
2024-05-09T06:32:18.830Z,11.51
2024-05-09T06:33:18.952Z,11.56
2024-05-09T06:34:18.954Z,11.59
2024-05-09T06:35:18.766Z,11.63
2024-05-09T06:36:18.707Z,11.67
2024-05-09T06:37:18.677Z,11.69
2024-05-09T06:38:18.681Z,11.70
2024-05-09T06:39:18.643Z,11.74
2024-05-09T06:40:25.466Z,11.74
2024-05-09T06:41:18.701Z,11.74
2024-05-09T06:42:18.595Z,11.74
2024-05-09T06:43:19.745Z,11.78
2024-05-09T06:44:18.670Z,11.81
2024-05-09T06:45:18.579Z,11.82
2024-05-09T06:46:18.558Z,11.88
2024-05-09T06:47:18.610Z,11.90
2024-05-09T06:48:19.305Z,11.94
2024-05-09T06:49:18.739Z,12.01
2024-05-09T06:50:23.932Z,12.03
2024-05-09T06:51:18.568Z,12.04
2024-05-09T06:52:18.498Z,12.11
2024-05-09T06:53:18.588Z,12.15
2024-05-09T06:54:18.480Z,12.18
2024-05-09T06:55:18.499Z,12.19
2024-05-09T06:56:18.500Z,12.25
2024-05-09T06:57:18.438Z,12.29
2024-05-09T06:58:18.439Z,12.30
2024-05-09T06:59:18.520Z,12.34
2024-05-09T07:00:26.912Z,12.38
2024-05-09T07:01:18.450Z,12.41
2024-05-09T07:02:18.485Z,12.46
2024-05-09T07:03:19.492Z,12.49
2024-05-09T07:04:18.450Z,12.52
2024-05-09T07:05:18.452Z,12.56
2024-05-09T07:06:18.456Z,12.56
2024-05-09T07:07:18.377Z,12.58
2024-05-09T07:08:18.543Z,12.63
2024-05-09T07:09:18.326Z,12.66
2024-05-09T07:10:25.579Z,12.70
2024-05-09T07:11:18.443Z,12.73
2024-05-09T07:12:18.458Z,12.76
2024-05-09T07:13:18.281Z,12.79
2024-05-09T07:14:18.307Z,12.79
2024-05-09T07:15:18.242Z,12.79
2024-05-09T07:16:18.258Z,12.81
2024-05-09T07:17:18.316Z,12.88
2024-05-09T07:18:19.299Z,12.92
2024-05-09T07:19:18.332Z,12.96
2024-05-09T07:20:23.734Z,12.99
2024-05-09T07:21:18.310Z,13.01
2024-05-09T07:22:18.175Z,12.99
2024-05-09T07:23:18.444Z,13.03
2024-05-09T07:24:18.165Z,13.06
2024-05-09T07:25:18.187Z,13.10
2024-05-09T07:26:18.350Z,13.13
2024-05-09T07:27:18.127Z,13.19
2024-05-09T07:28:18.220Z,13.21
2024-05-09T07:29:18.222Z,13.28
2024-05-09T07:30:23.572Z,13.32
2024-05-09T07:31:18.101Z,13.36
2024-05-09T07:32:18.202Z,13.41
2024-05-09T07:33:18.383Z,13.44
2024-05-09T07:34:18.144Z,13.43
2024-05-09T07:35:18.114Z,13.46
2024-05-09T07:36:18.068Z,13.46
2024-05-09T07:37:18.019Z,13.48
2024-05-09T07:38:18.076Z,13.51
2024-05-09T07:39:17.992Z,13.55
2024-05-09T07:40:28.170Z,13.62
2024-05-09T07:41:18.012Z,13.68
2024-05-09T07:42:17.995Z,13.73
2024-05-09T07:43:17.949Z,13.80
2024-05-09T07:44:17.977Z,13.83
2024-05-09T07:45:39.658Z,13.83
2024-05-09T07:47:14.348Z,13.86
2024-05-09T07:50:34.261Z,13.87
2024-05-09T07:53:32.454Z,13.90
2024-05-09T07:53:49.304Z,14.05
2024-05-09T07:54:00.441Z,14.11
2024-05-09T07:54:56.290Z,14.20
2024-05-09T07:55:56.642Z,14.26
2024-05-09T07:56:56.183Z,14.36
2024-05-09T07:57:55.974Z,14.45
2024-05-09T07:58:56.364Z,14.49
2024-05-09T07:59:55.930Z,14.56
2024-05-09T08:00:56.063Z,14.60
2024-05-09T08:01:56.056Z,14.64
2024-05-09T08:02:55.988Z,14.67
2024-05-09T08:03:56.136Z,14.71
2024-05-09T08:04:55.959Z,14.78
2024-05-09T08:05:55.861Z,14.86
2024-05-09T08:06:55.865Z,14.97
2024-05-09T08:07:55.819Z,15.03
2024-05-09T08:08:56.060Z,15.07
2024-05-09T08:09:55.909Z,15.09
2024-05-09T08:10:55.873Z,15.05
2024-05-09T08:11:55.899Z,15.05
2024-05-09T08:12:55.826Z,15.03
2024-05-09T08:13:55.792Z,15.05
2024-05-09T08:14:55.762Z,15.11
2024-05-09T08:15:55.826Z,15.15
2024-05-09T08:16:55.787Z,15.15
2024-05-09T08:17:56.018Z,15.13
2024-05-09T08:18:55.792Z,15.11
2024-05-09T08:19:55.702Z,15.12
2024-05-09T08:20:55.734Z,15.12
2024-05-09T08:21:55.731Z,15.11
2024-05-09T08:22:55.664Z,15.13
2024-05-09T08:23:55.672Z,15.13
2024-05-09T08:24:55.767Z,15.13
2024-05-09T08:25:55.709Z,15.18
2024-05-09T08:26:55.641Z,15.19
2024-05-09T08:27:55.700Z,15.23
2024-05-09T08:28:55.597Z,15.27
2024-05-09T08:29:55.709Z,15.28
2024-05-09T08:30:55.761Z,15.30
2024-05-09T08:31:55.633Z,15.31
2024-05-09T08:32:55.766Z,15.31
2024-05-09T08:33:55.753Z,15.33
2024-05-09T08:34:55.660Z,15.35
2024-05-09T08:35:55.548Z,15.34
2024-05-09T08:36:57.549Z,15.38
2024-05-09T08:37:55.644Z,15.46
2024-05-09T08:38:55.497Z,15.48
2024-05-09T08:39:55.663Z,15.53
2024-05-09T08:40:55.623Z,15.56
2024-05-09T08:41:55.473Z,15.60
2024-05-09T08:42:55.522Z,15.67
2024-05-09T08:43:55.432Z,15.71
2024-05-09T08:44:55.446Z,15.78
2024-05-09T08:45:55.455Z,15.89
2024-05-09T08:46:55.440Z,15.96
2024-05-09T08:47:55.649Z,16.03
2024-05-09T08:48:55.594Z,16.06
2024-05-09T08:49:55.463Z,16.10
2024-05-09T08:50:55.430Z,16.10
2024-05-09T08:51:55.450Z,16.13
2024-05-09T08:52:55.370Z,16.16
2024-05-09T08:53:55.344Z,16.18
2024-05-09T08:54:55.387Z,16.23
2024-05-09T08:55:55.335Z,16.22
2024-05-09T08:56:55.311Z,16.23
2024-05-09T08:57:55.382Z,16.23
2024-05-09T08:58:55.328Z,16.22
2024-05-09T08:59:55.291Z,16.22
2024-05-09T09:00:55.482Z,16.18
2024-05-09T09:01:55.430Z,16.18
2024-05-09T09:02:55.325Z,16.25
2024-05-09T09:03:55.419Z,16.29
2024-05-09T09:04:55.336Z,16.36
2024-05-09T09:05:55.208Z,16.40
2024-05-09T09:06:58.179Z,16.45
2024-05-09T09:07:55.194Z,16.51
2024-05-09T09:08:55.194Z,16.52
2024-05-09T09:09:55.228Z,16.51
2024-05-09T09:10:55.281Z,16.51
2024-05-09T09:11:55.265Z,16.51
2024-05-09T09:12:55.192Z,16.50
2024-05-09T09:13:55.161Z,16.59
2024-05-09T09:14:55.121Z,16.67
2024-05-09T09:15:55.130Z,16.77
2024-05-09T09:16:55.109Z,16.78
2024-05-09T09:17:55.251Z,16.81
2024-05-09T09:18:55.257Z,16.80
2024-05-09T09:19:55.125Z,16.75
2024-05-09T09:20:55.275Z,16.78
2024-05-09T09:21:55.089Z,16.85
2024-05-09T09:22:55.027Z,16.87
2024-05-09T09:23:55.017Z,16.88
2024-05-09T09:24:55.034Z,16.88
2024-05-09T09:25:55.008Z,16.87
2024-05-09T09:26:54.989Z,16.84
2024-05-09T09:27:55.152Z,16.80
2024-05-09T09:28:54.975Z,16.78
2024-05-09T09:29:54.951Z,16.77
2024-05-09T09:30:54.975Z,16.73
2024-05-09T09:31:54.940Z,16.69
2024-05-09T09:32:55.049Z,16.67
2024-05-09T09:33:55.247Z,16.75
2024-05-09T09:34:55.090Z,16.90
2024-05-09T09:35:54.892Z,16.99
2024-05-09T09:36:54.938Z,17.00
2024-05-09T09:37:54.895Z,16.99
2024-05-09T09:38:54.899Z,17.00
2024-05-09T09:39:54.856Z,17.00
2024-05-09T09:40:54.928Z,16.98
2024-05-09T09:41:54.820Z,16.96
2024-05-09T09:42:54.869Z,16.95
2024-05-09T09:43:54.814Z,16.92
2024-05-09T09:45:03.762Z,16.91
2024-05-09T09:45:54.843Z,16.98
2024-05-09T09:46:54.797Z,17.02
2024-05-09T09:47:54.867Z,17.06
2024-05-09T09:48:54.896Z,17.14
2024-05-09T09:49:54.827Z,17.15
2024-05-09T09:50:54.723Z,17.21
2024-05-09T09:51:54.759Z,17.22
2024-05-09T09:52:54.718Z,17.25
2024-05-09T09:53:54.716Z,17.22
2024-05-09T09:54:55.030Z,17.18
2024-05-09T09:55:54.692Z,17.25
2024-05-09T09:56:54.676Z,17.27
2024-05-09T09:57:54.691Z,17.27
2024-05-09T09:58:54.650Z,17.28
2024-05-09T09:59:54.626Z,17.28
2024-05-09T10:00:54.854Z,17.30
2024-05-09T10:01:54.714Z,17.33
2024-05-09T10:02:54.637Z,17.30
2024-05-09T10:03:54.760Z,17.40
2024-05-09T10:04:54.746Z,17.45
2024-05-09T10:05:54.662Z,17.42
2024-05-09T10:06:54.669Z,17.45
2024-05-09T10:07:54.545Z,17.47
2024-05-09T10:08:54.579Z,17.53
2024-05-09T10:09:54.544Z,17.58
2024-05-09T10:10:54.725Z,17.57
2024-05-09T10:11:59.853Z,17.62
2024-05-09T10:12:54.564Z,17.65
2024-05-09T10:13:54.502Z,17.66
2024-05-09T10:14:54.507Z,17.70
2024-05-09T10:15:54.836Z,17.70
2024-05-09T10:16:54.472Z,17.70
2024-05-09T10:17:54.762Z,17.71
2024-05-09T10:18:54.633Z,17.73
2024-05-09T10:19:54.517Z,17.76
2024-05-09T10:20:54.454Z,17.74
2024-05-09T10:21:54.439Z,17.74
2024-05-09T10:22:54.415Z,17.71
2024-05-09T10:23:54.379Z,17.71
2024-05-09T10:24:54.423Z,17.73
2024-05-09T10:25:54.353Z,17.73
2024-05-09T10:26:54.363Z,17.74
2024-05-09T10:27:54.480Z,17.77
2024-05-09T10:28:54.320Z,17.76
2024-05-09T10:29:54.332Z,17.79
2024-05-09T10:30:54.360Z,17.79
2024-05-09T10:31:54.384Z,17.77
2024-05-09T10:32:54.361Z,17.73
2024-05-09T10:33:54.443Z,17.74
2024-05-09T10:34:54.258Z,17.73
2024-05-09T10:35:54.257Z,17.68
2024-05-09T10:36:54.335Z,17.63
2024-05-09T10:37:54.222Z,17.60
2024-05-09T10:38:54.233Z,17.57
2024-05-09T10:39:54.274Z,17.55
2024-05-09T10:40:54.203Z,17.54
2024-05-09T10:41:54.209Z,17.57
2024-05-09T10:42:54.245Z,17.53
2024-05-09T10:43:54.172Z,17.51
2024-05-09T10:44:54.182Z,17.46
2024-05-09T10:45:54.265Z,17.51
2024-05-09T10:46:54.176Z,17.57
2024-05-09T10:47:54.423Z,17.63
2024-05-09T10:48:54.323Z,17.68
2024-05-09T10:49:54.229Z,17.74
2024-05-09T10:50:54.118Z,17.81
2024-05-09T10:51:54.166Z,17.91
2024-05-09T10:52:54.065Z,18.01
2024-05-09T10:53:54.069Z,18.02
2024-05-09T10:54:54.143Z,18.04
2024-05-09T10:55:54.045Z,17.98
2024-05-09T10:56:54.044Z,18.02
2024-05-09T10:57:54.063Z,18.01
2024-05-09T10:58:54.005Z,18.02
2024-05-09T10:59:54.024Z,18.05
2024-05-09T11:00:54.117Z,18.05
2024-05-09T11:01:54.142Z,18.07
2024-05-09T11:02:54.027Z,18.09
2024-05-09T11:03:54.215Z,18.13
2024-05-09T11:04:54.177Z,18.11
2024-05-09T11:05:54.049Z,18.09
2024-05-09T11:06:53.997Z,18.10
2024-05-09T11:07:53.975Z,18.09
2024-05-09T11:08:53.901Z,18.02
2024-05-09T11:09:53.946Z,17.98
2024-05-09T11:10:53.990Z,17.92
2024-05-09T11:11:53.922Z,17.91
2024-05-09T11:12:53.935Z,17.84
2024-05-09T11:13:53.878Z,17.80
2024-05-09T11:14:53.821Z,17.76
2024-05-09T11:15:53.928Z,17.74
2024-05-09T11:16:53.806Z,17.66
2024-05-09T11:17:53.902Z,17.63
2024-05-09T11:18:53.980Z,17.60
2024-05-09T11:19:53.872Z,17.65
2024-05-09T11:20:53.777Z,17.68
2024-05-09T11:21:53.810Z,17.68
2024-05-09T11:22:53.746Z,17.74
2024-05-09T11:23:53.752Z,17.79
2024-05-09T11:24:53.761Z,17.87
2024-05-09T11:25:53.757Z,17.92
2024-05-09T11:26:53.698Z,17.95
2024-05-09T11:27:53.769Z,18.02
2024-05-09T11:28:53.674Z,18.09
2024-05-09T11:29:53.750Z,18.16
2024-05-09T11:30:53.710Z,18.17
2024-05-09T11:31:53.783Z,18.20
2024-05-09T11:32:53.748Z,18.34
2024-05-09T11:33:53.800Z,18.35
2024-05-09T11:34:53.666Z,18.39
2024-05-09T11:35:53.615Z,18.57
2024-05-09T11:36:53.701Z,18.75
2024-05-09T11:37:53.615Z,18.82
2024-05-09T11:38:53.568Z,18.79
2024-05-09T11:39:53.683Z,18.79
2024-05-09T11:40:53.712Z,18.76
2024-05-09T11:41:53.545Z,18.76
2024-05-09T11:42:53.722Z,18.79
2024-05-09T11:43:53.525Z,18.79
2024-05-09T11:44:53.520Z,18.82
2024-05-09T11:45:53.702Z,18.89
2024-05-09T11:46:53.531Z,18.87
2024-05-09T11:47:53.625Z,18.86
2024-05-09T11:48:53.751Z,18.84
2024-05-09T11:49:53.595Z,18.76
2024-05-09T11:50:53.464Z,18.65
2024-05-09T11:51:53.547Z,18.59
2024-05-09T11:52:53.453Z,18.51
2024-05-09T11:53:53.433Z,18.47
2024-05-09T11:54:53.507Z,18.44
2024-05-09T11:55:53.419Z,18.41
2024-05-09T11:56:53.401Z,18.41
2024-05-09T11:57:53.479Z,18.36
2024-05-09T11:58:53.399Z,18.34
2024-05-09T11:59:53.368Z,18.34
2024-05-09T12:00:53.516Z,18.35
2024-05-09T12:01:53.548Z,18.35
2024-05-09T12:02:53.342Z,18.39
2024-05-09T12:03:53.546Z,18.39
2024-05-09T12:04:53.447Z,18.44
2024-05-09T12:05:53.399Z,18.47
2024-05-09T12:06:53.311Z,18.51
2024-05-09T12:07:53.279Z,18.59
2024-05-09T12:08:53.300Z,18.65
2024-05-09T12:09:53.332Z,18.68
2024-05-09T12:10:53.608Z,18.72
2024-05-09T12:11:53.455Z,18.75
2024-05-09T12:12:53.296Z,18.79
2024-05-09T12:13:53.222Z,18.82
2024-05-09T12:14:53.192Z,18.79
2024-05-09T12:15:53.287Z,18.84
2024-05-09T12:16:53.226Z,18.84
2024-05-09T12:17:53.325Z,18.82
2024-05-09T12:18:53.314Z,18.82
2024-05-09T12:19:53.152Z,18.79
2024-05-09T12:20:53.136Z,18.78
2024-05-09T12:21:53.195Z,18.79
2024-05-09T12:22:53.104Z,18.74
2024-05-09T12:23:53.137Z,18.69
2024-05-09T12:24:53.164Z,18.68
2024-05-09T12:25:53.088Z,18.68
2024-05-09T12:26:53.076Z,18.65
2024-05-09T12:27:53.156Z,18.66
2024-05-09T12:28:53.056Z,18.71
2024-05-09T12:29:53.044Z,18.74
2024-05-09T12:30:53.056Z,18.79
2024-05-09T12:31:53.118Z,18.83
2024-05-09T12:32:53.266Z,18.83
2024-05-09T12:33:53.060Z,18.83
2024-05-09T12:34:53.140Z,18.83
2024-05-09T12:35:52.983Z,18.86
2024-05-09T12:36:52.999Z,18.87
2024-05-09T12:37:52.954Z,18.89
2024-05-09T12:38:52.933Z,18.94
2024-05-09T12:39:52.983Z,18.96
2024-05-09T12:40:53.161Z,19.05
2024-05-09T12:41:52.897Z,19.06
2024-05-09T12:42:52.960Z,19.09
2024-05-09T12:43:52.901Z,19.12
2024-05-09T12:44:52.895Z,19.16
2024-05-09T12:45:52.895Z,19.15
2024-05-09T12:46:52.888Z,19.16
2024-05-09T12:47:52.901Z,19.20
2024-05-09T12:48:53.095Z,19.24
2024-05-09T12:49:52.847Z,19.30
2024-05-09T12:50:52.849Z,19.35
2024-05-09T12:51:52.878Z,19.42
2024-05-09T12:52:52.827Z,19.46
2024-05-09T12:53:52.773Z,19.47
2024-05-09T12:54:52.807Z,19.55
2024-05-09T12:55:57.002Z,19.64
2024-05-09T12:56:52.788Z,19.65
2024-05-09T12:57:52.779Z,19.65
2024-05-09T12:58:52.728Z,19.57
2024-05-09T12:59:52.743Z,19.46
2024-05-09T13:00:53.138Z,19.40
2024-05-09T13:01:52.859Z,19.28
2024-05-09T13:02:52.736Z,19.21
2024-05-09T13:03:53.029Z,19.17
2024-05-09T13:04:52.833Z,19.13